Preston, IA (52069)

2:41 AM CDT on September 22, 2014 (GMT -0500)
Mt. Murrell | Change Station
CLOSE
Current Station
Personal Weather Station
Location: Charlotte, IA
Elevation: 797 ft
Nearby Weather Stations

Elev 797 ft 41.98 °N, 90.50 °W | Updated 0 second ago

Clear
Clear
48.0 °F
Feels Like 48 °F
N
0.0
Wind Variable Wind from NNE
Gusts 0.0 mph

Today
High -- | Low -- °F
--% Chance of Precip.
Yesterday
High -- | Low -- °F
Precip. -- in
6:48 AM 6:58 PM
Waning Crescent, 4% visible
Pressure 30.21 in
Visibility 10.0 miles
Clouds Clear
Windchill 48 °F
Dew Point 44 °F
Humidity 85%
Rainfall 0.00 in
Snow Depth Not available.
UV 0 out of 12
Pollen 4.30 out of 12
Air Quality Not available.
Flu Activity Not available.
METAR KSFY 220735Z AUTO 34003KT 10SM CLR 08/06 A3021 RMK AO2 T00840061

More Conditions Fewer Conditions

Pressure 30.21 in
Visibility 10.0 miles
Clouds Clear
Windchill 48 °F
Dew Point 44 °F
Humidity 85%
Rainfall 0.00 in
Snow Depth Not available.
UV 0 out of 12
Pollen 4.30 out of 12
Air Quality Not available.
Flu Activity Not available.
METAR KSFY 220735Z AUTO 34003KT 10SM CLR 08/06 A3021 RMK AO2 T00840061

More Conditions Fewer Conditions

10-Day Weather Forecast

Almanac

Astronomy

Sep. 22, 2014 Rise Set
Actual Time 6:48 AM CDT 6:58 PM CDT
Civil Twilight 6:21 AM CDT 7:26 PM CDT
Nautical Twilight 5:48 AM CDT 7:59 PM CDT
Astronomical Twilight 5:14 AM CDT 8:32 PM CDT
Moon 5:16 AM CDT 6:07 PM CDT
Length of Visible Light 13h 05m
Length of Day
12h 09m
Tomorrow will be 2m 50s shorter.
Waning Crescent, 4% of the Moon is Illuminated
Today
Waning Crescent
Sep 24
New
Oct 1
First Quarter
Oct 8
Full
Oct 15
Last Quarter

Today's Extremes

State Highs State Lows

Community

WunderPhotos

Upload Photos

1,755,392 photos uploaded!

Nearby

Snow Depth

Station Depth Elevation
No new snow has been reported.

Earthquake Activity

City Distance Mag. Time & Date
No recent earthquake activity has been reported nearby.
Minimum magnitude displayed is 2.5.

Coastal Water Temperatures

Place Temperature
No Stations Reporting

Nearby Weather Stations